Time;durP1;ratioP1;P1;durP2;ratioP2;P2;SDS_P1;SDS_P2;PMS_P1;PMS_P2;Temp;Humidity;BMP_temperature;BMP_pressure;BME280_temperature;BME280_humidity;BME280_pressure;Samples;Min_cycle;Max_cycle;Signal;HPM_P1;HPM_P2
2022/11/17 00:00:17;;;;;;;15.73;8.70;;;;;;;5.93;100.00;94654.22;4953636;28;20985;-86
2022/11/17 00:02:43;;;;;;;14.97;8.90;;;;;;;5.90;100.00;94648.34;4955928;28;20071;-86
2022/11/17 00:05:09;;;;;;;16.60;9.17;;;;;;;5.95;100.00;94647.84;4962187;28;20030;-86
2022/11/17 00:07:35;;;;;;;14.43;8.57;;;;;;;5.94;100.00;94650.66;4955442;28;20038;-86
2022/11/17 00:10:00;;;;;;;13.33;8.53;;;;;;;6.01;100.00;94641.16;4953446;28;20031;-86
2022/11/17 00:15:11;;;;;;;13.10;8.67;;;;;;;5.94;100.00;94651.47;4963056;28;20499;-87
2022/11/17 00:17:37;;;;;;;16.47;9.57;;;;;;;5.93;100.00;94641.16;4949787;28;20026;-85
2022/11/17 00:22:52;;;;;;;14.03;9.67;;;;;;;6.00;100.00;94640.34;4971707;28;20050;-86
2022/11/17 00:25:18;;;;;;;13.70;9.57;;;;;;;6.06;100.00;94628.41;4941217;28;20090;-86
2022/11/17 00:27:43;;;;;;;11.97;8.93;;;;;;;6.03;100.00;94629.53;4970848;28;20026;-86
2022/11/17 00:35:59;;;;;;;17.10;9.37;;;;;;;6.13;100.00;94618.88;4978425;28;20112;-86
2022/11/17 00:38:26;;;;;;;13.93;9.47;;;;;;;6.16;100.00;94610.72;4946765;28;20105;-86
2022/11/17 00:40:53;;;;;;;12.43;8.87;;;;;;;6.20;100.00;94601.56;4922933;28;20508;-87
2022/11/17 00:43:19;;;;;;;13.23;8.87;;;;;;;6.26;100.00;94598.25;4963366;28;20043;-86
2022/11/17 00:45:44;;;;;;;11.37;7.93;;;;;;;6.25;100.00;94594.03;4963366;28;20065;-87
2022/11/17 00:48:11;;;;;;;12.77;8.10;;;;;;;6.30;100.00;94588.28;4947477;28;20041;-86
2022/11/17 00:50:36;;;;;;;13.93;8.07;;;;;;;6.28;100.00;94583.25;4972951;28;20026;-86
2022/11/17 00:53:02;;;;;;;17.23;8.70;;;;;;;6.26;100.00;94587.81;4939054;28;20101;-86
2022/11/17 00:55:31;;;;;;;13.77;8.63;;;;;;;6.23;100.00;94595.19;4971836;28;20026;-88
2022/11/17 00:57:57;;;;;;;14.10;8.23;;;;;;;6.31;100.00;94580.28;4955786;28;20070;-86
2022/11/17 01:00:24;;;;;;;12.30;7.60;;;;;;;6.31;100.00;94582.91;4948272;29;20046;-87
2022/11/17 01:02:50;;;;;;;10.73;7.77;;;;;;;6.27;100.00;94578.19;4967551;28;20034;-86
2022/11/17 01:05:16;;;;;;;13.77;8.23;;;;;;;6.30;100.00;94581.25;4948883;28;20089;-86
2022/11/17 01:08:03;;;;;;;11.73;7.73;;;;;;;6.32;100.00;94568.84;4966005;28;20022;-84
2022/11/17 01:10:29;;;;;;;10.93;7.87;;;;;;;6.41;100.00;94572.22;4961051;28;20039;-86
2022/11/17 01:12:55;;;;;;;10.33;7.13;;;;;;;6.51;100.00;94551.91;4935182;28;20539;-86
2022/11/17 01:15:20;;;;;;;11.40;6.97;;;;;;;6.51;100.00;94558.94;4978270;28;20093;-87
2022/11/17 01:17:46;;;;;;;11.40;6.23;;;;;;;6.60;100.00;94544.81;4953900;28;20548;-86
2022/11/17 01:20:12;;;;;;;9.83;6.40;;;;;;;6.63;100.00;94526.19;4961982;28;20031;-86
2022/11/17 01:22:37;;;;;;;10.37;6.00;;;;;;;6.69;100.00;94520.25;4946572;28;20042;-86
2022/11/17 01:25:04;;;;;;;10.20;5.80;;;;;;;6.76;100.00;94517.75;4953342;28;20066;-86
2022/11/17 01:27:29;;;;;;;10.33;6.23;;;;;;;6.76;100.00;94515.13;4978524;28;20057;-87
2022/11/17 01:29:55;;;;;;;13.10;6.60;;;;;;;6.77;100.00;94519.34;4955561;28;20497;-86
2022/11/17 01:32:40;;;;;;;13.23;6.63;;;;;;;6.68;100.00;94520.44;4938324;28;20070;-86
2022/11/17 01:35:06;;;;;;;12.57;7.37;;;;;;;6.65;100.00;94532.06;4971624;28;20027;-86
2022/11/17 01:37:32;;;;;;;12.47;7.00;;;;;;;6.54;100.00;94532.47;4950702;28;20338;-86
2022/11/17 01:40:11;;;;;;;11.83;7.60;;;;;;;6.42;100.00;94523.44;4956512;28;20042;-86
2022/11/17 01:42:36;;;;;;;10.17;6.27;;;;;;;6.49;100.00;94524.34;4949968;28;20034;-87
2022/11/17 01:45:17;;;;;;;11.17;6.60;;;;;;;6.58;100.00;94529.34;4950302;28;20098;-86
2022/11/17 01:47:49;;;;;;;8.63;5.70;;;;;;;6.67;100.00;94527.44;4957806;28;20031;-86
2022/11/17 01:50:30;;;;;;;13.33;6.40;;;;;;;6.68;100.00;94529.09;4942077;28;20511;-86
2022/11/17 01:53:07;;;;;;;10.00;5.63;;;;;;;6.72;100.00;94524.31;4948462;28;20185;-86
2022/11/17 01:55:39;;;;;;;10.20;5.93;;;;;;;6.72;100.00;94512.06;4957526;28;20031;-86
2022/11/17 01:58:16;;;;;;;10.37;5.13;;;;;;;6.67;100.00;94522.22;4946765;28;20046;-85
2022/11/17 02:00:42;;;;;;;12.63;6.23;;;;;;;6.54;100.00;94522.03;4969417;28;20049;-86
2022/11/17 02:03:08;;;;;;;9.90;6.03;;;;;;;6.50;100.00;94507.69;4956899;28;20034;-86
2022/11/17 02:05:43;;;;;;;11.37;6.70;;;;;;;6.40;100.00;94505.31;4957176;28;20481;-86
2022/11/17 02:08:10;;;;;;;14.10;7.53;;;;;;;6.33;100.00;94501.78;4954725;28;20588;-86
2022/11/17 02:10:36;;;;;;;12.73;6.83;;;;;;;6.28;100.00;94506.75;4957088;28;20031;-86
2022/11/17 02:13:02;;;;;;;12.10;6.93;;;;;;;6.36;100.00;94502.25;4957138;28;20042;-85
2022/11/17 02:15:29;;;;;;;13.23;6.47;;;;;;;6.34;100.00;94496.41;4946239;29;20082;-86
2022/11/17 02:17:56;;;;;;;13.30;7.97;;;;;;;6.31;100.00;94490.72;4954541;28;20042;-86
2022/11/17 02:20:47;;;;;;;11.17;7.27;;;;;;;6.27;100.00;94477.22;4967047;28;20023;-86
2022/11/17 02:23:52;;;;;;;9.60;6.87;;;;;;;6.33;100.00;94478.28;4962120;28;20042;-86
2022/11/17 02:26:39;;;;;;;9.07;5.97;;;;;;;6.30;100.00;94476.84;4947575;29;20031;-86
2022/11/17 02:29:23;;;;;;;8.03;5.67;;;;;;;6.40;100.00;94470.56;4956607;28;20504;-86
2022/11/17 02:32:29;;;;;;;8.30;5.23;;;;;;;6.42;100.00;94463.38;4957045;28;20049;-86
2022/11/17 02:35:26;;;;;;;9.67;6.30;;;;;;;6.46;100.00;94452.38;4978306;28;20046;-86
2022/11/17 02:37:58;;;;;;;8.30;5.20;;;;;;;6.51;100.00;94441.44;4936425;29;20051;-86
2022/11/17 02:41:05;;;;;;;9.43;5.43;;;;;;;6.46;100.00;94435.91;4957230;28;20031;-86
2022/11/17 02:46:26;;;;;;;15.00;5.67;;;;;;;6.42;100.00;94432.03;4957311;28;20085;-85
2022/11/17 02:48:59;;;;;;;9.90;5.23;;;;;;;6.35;100.00;94418.88;4972178;28;20105;-86
2022/11/17 02:51:25;;;;;;;8.40;5.50;;;;;;;6.24;100.00;94412.31;4945841;28;20042;-86
2022/11/17 02:54:01;;;;;;;8.87;5.90;;;;;;;6.30;100.00;94410.78;4949281;28;20520;-86
2022/11/17 02:56:26;;;;;;;11.73;6.77;;;;;;;6.26;100.00;94407.69;4951128;28;20042;-86
2022/11/17 02:58:59;;;;;;;9.43;5.77;;;;;;;6.19;100.00;94406.00;4948274;28;20416;-85
2022/11/17 03:01:57;;;;;;;7.67;5.40;;;;;;;6.14;100.00;94407.34;4954995;28;20394;-86
2022/11/17 03:04:48;;;;;;;9.10;6.27;;;;;;;6.16;100.00;94395.91;4910717;28;20072;-86
2022/11/17 03:07:39;;;;;;;10.00;5.07;;;;;;;6.21;100.00;94394.38;4940676;28;20039;-86
2022/11/17 03:10:18;;;;;;;8.17;5.47;;;;;;;6.26;100.00;94393.84;4945895;28;20041;-86
2022/11/17 03:13:01;;;;;;;8.97;5.53;;;;;;;6.24;100.00;94386.22;4959094;28;20037;-86
2022/11/17 03:15:32;;;;;;;7.87;5.03;;;;;;;6.24;100.00;94377.56;4968301;28;20041;-85
2022/11/17 03:18:20;;;;;;;8.50;5.10;;;;;;;6.29;100.00;94370.81;4972612;28;20214;-86
2022/11/17 03:20:53;;;;;;;9.90;4.87;;;;;;;6.31;100.00;94362.81;4954915;28;20038;-86
2022/11/17 03:23:48;;;;;;;10.43;4.33;;;;;;;6.34;100.00;94360.66;4954230;28;20030;-86
2022/11/17 03:26:19;;;;;;;8.07;4.73;;;;;;;6.41;100.00;94359.94;4957667;28;20050;-86
2022/11/17 03:28:46;;;;;;;7.63;4.73;;;;;;;6.36;100.00;94355.25;4959559;28;20038;-85
2022/11/17 03:31:15;;;;;;;14.07;5.83;;;;;;;6.27;100.00;94359.75;4966063;28;20034;-86
2022/11/17 03:33:44;;;;;;;10.93;5.47;;;;;;;6.23;100.00;94332.34;4985228;28;20069;-86
2022/11/17 03:36:14;;;;;;;8.50;5.33;;;;;;;6.23;100.00;94323.72;4958337;28;20058;-86
2022/11/17 03:38:48;;;;;;;6.47;3.53;;;;;;;6.37;100.00;94313.31;4974637;28;20034;-87
2022/11/17 03:41:17;;;;;;;8.27;4.83;;;;;;;6.44;100.00;94309.94;4942079;28;20027;-86
2022/11/17 03:43:44;;;;;;;6.97;4.00;;;;;;;6.38;100.00;94327.97;4954265;28;20144;-86
2022/11/17 03:46:14;;;;;;;7.13;3.83;;;;;;;6.40;100.00;94321.75;4941435;28;20134;-86
2022/11/17 03:48:49;;;;;;;8.40;4.23;;;;;;;6.38;100.00;94340.22;4973498;28;20042;-86
2022/11/17 03:51:19;;;;;;;9.87;4.60;;;;;;;6.31;100.00;94349.75;4951194;28;20031;-86
2022/11/17 03:53:53;;;;;;;6.20;3.80;;;;;;;6.23;100.00;94360.25;4975016;28;20113;-86
2022/11/17 03:56:27;;;;;;;6.83;4.30;;;;;;;6.21;100.00;94370.09;4951419;28;20042;-86
2022/11/17 03:59:10;;;;;;;7.77;3.83;;;;;;;6.32;100.00;94373.06;4958868;28;20054;-86
2022/11/17 04:01:36;;;;;;;7.70;3.70;;;;;;;6.34;100.00;94373.69;4974423;28;20043;-85
2022/11/17 04:04:02;;;;;;;5.80;3.37;;;;;;;6.34;100.00;94376.31;4957431;28;20030;-86
2022/11/17 04:06:35;;;;;;;5.77;3.57;;;;;;;6.39;100.00;94367.94;4962080;28;20037;-86
2022/11/17 04:09:01;;;;;;;6.55;3.10;;;;;;;6.45;100.00;94362.00;4943805;28;20043;-85
2022/11/17 04:16:54;;;;;;;6.53;2.80;;;;;;;6.52;100.00;94375.97;4960024;28;20038;-86
2022/11/17 04:19:20;;;;;;;4.90;2.73;;;;;;;6.46;100.00;94373.25;4944868;28;20035;-86
2022/11/17 04:21:45;;;;;;;5.63;3.00;;;;;;;6.45;100.00;94387.31;4951016;28;20086;-86
2022/11/17 04:24:11;;;;;;;6.10;2.57;;;;;;;6.53;100.00;94388.00;4945300;28;20039;-86
2022/11/17 04:29:21;;;;;;;3.10;1.90;;;;;;;6.64;100.00;94407.69;4958570;28;20030;-86
2022/11/17 04:31:47;;;;;;;5.97;2.83;;;;;;;6.66;100.00;94405.69;4971129;28;20089;-86
2022/11/17 04:34:12;;;;;;;5.20;2.67;;;;;;;6.65;100.00;94422.34;4957586;28;20030;-86
2022/11/17 04:36:43;;;;;;;8.20;3.43;;;;;;;6.65;100.00;94409.28;4971476;28;20508;-85
2022/11/17 04:39:14;;;;;;;6.80;3.47;;;;;;;6.65;100.00;94377.94;4954131;28;20031;-85
2022/11/17 04:41:52;;;;;;;9.33;3.77;;;;;;;6.47;100.00;94400.97;4951014;28;20489;-86
2022/11/17 04:44:22;;;;;;;9.23;4.40;;;;;;;6.47;100.00;94390.53;4970384;28;20035;-85
2022/11/17 04:46:48;;;;;;;7.00;3.50;;;;;;;6.44;100.00;94372.59;4958595;28;20082;-86
2022/11/17 04:49:16;;;;;;;7.73;4.30;;;;;;;6.19;100.00;94361.63;4950886;28;20042;-85
2022/11/17 04:51:42;;;;;;;6.30;3.70;;;;;;;6.09;100.00;94367.91;4939605;28;20034;-85
2022/11/17 04:54:14;;;;;;;8.67;4.07;;;;;;;5.88;100.00;94365.13;4963527;28;20062;-86
2022/11/17 04:56:40;;;;;;;7.23;4.27;;;;;;;5.88;100.00;94370.34;4957150;28;20248;-85
2022/11/17 04:59:06;;;;;;;9.40;4.30;;;;;;;5.86;100.00;94367.91;4957322;28;20057;-85
2022/11/17 05:01:32;;;;;;;8.60;4.07;;;;;;;5.99;100.00;94369.94;4956625;28;20465;-86
2022/11/17 05:04:00;;;;;;;8.60;3.50;;;;;;;6.10;100.00;94353.88;4951946;28;20181;-86
2022/11/17 05:06:35;;;;;;;5.87;3.20;;;;;;;6.22;100.00;94367.28;4939091;28;20031;-85
2022/11/17 05:09:12;;;;;;;6.93;3.20;;;;;;;6.27;100.00;94370.19;4960839;28;20042;-87
2022/11/17 05:14:24;;;;;;;9.03;3.50;;;;;;;6.32;100.00;94349.56;4970528;28;20105;-87
2022/11/17 05:17:09;;;;;;;5.13;2.80;;;;;;;6.35;100.00;94346.59;4954317;28;20100;-86
2022/11/17 05:19:48;;;;;;;6.47;2.80;;;;;;;6.42;100.00;94348.50;4943702;29;20062;-86
2022/11/17 05:25:02;;;;;;;6.83;3.13;;;;;;;6.42;100.00;94340.66;4975531;28;20125;-85
2022/11/17 05:27:28;;;;;;;6.63;3.80;;;;;;;6.40;100.00;94337.41;4971773;28;20575;-85
2022/11/17 05:29:54;;;;;;;6.60;4.07;;;;;;;6.37;100.00;94334.19;4945418;28;20039;-85
2022/11/17 05:32:20;;;;;;;7.27;4.63;;;;;;;6.44;100.00;94342.13;4940770;28;20031;-85
2022/11/17 05:34:46;;;;;;;8.50;4.60;;;;;;;6.53;100.00;94353.25;4975867;28;20034;-85
2022/11/17 05:37:12;;;;;;;6.80;4.57;;;;;;;6.63;100.00;94347.75;4935473;28;20118;-86
2022/11/17 05:39:38;;;;;;;8.53;4.83;;;;;;;6.70;100.00;94344.25;4926406;28;20117;-85
2022/11/17 05:42:03;;;;;;;9.33;4.90;;;;;;;6.72;100.00;94355.31;4967684;28;20039;-85
2022/11/17 05:44:29;;;;;;;7.37;4.03;;;;;;;6.71;100.00;94355.53;4953910;28;20031;-85
2022/11/17 05:46:56;;;;;;;10.60;6.60;;;;;;;6.73;100.00;94341.25;4948047;28;20125;-86
2022/11/17 05:49:22;;;;;;;8.70;4.17;;;;;;;6.74;100.00;94342.91;4949854;28;20118;-85
2022/11/17 05:51:48;;;;;;;8.13;4.60;;;;;;;6.78;100.00;94349.38;4953605;28;20074;-85
2022/11/17 05:54:14;;;;;;;7.43;4.33;;;;;;;6.77;100.00;94339.94;4938082;28;20109;-86
2022/11/17 05:56:59;;;;;;;8.37;4.53;;;;;;;6.73;100.00;94330.00;4952345;28;20891;-86
2022/11/17 05:59:31;;;;;;;7.73;4.60;;;;;;;6.74;100.00;94337.69;4946491;28;20409;-86
2022/11/17 06:02:07;;;;;;;8.87;5.03;;;;;;;6.71;100.00;94352.91;4963143;28;20039;-86
2022/11/17 06:04:33;;;;;;;9.13;5.03;;;;;;;6.71;100.00;94358.13;4941322;28;20030;-86
2022/11/17 06:07:00;;;;;;;8.03;4.83;;;;;;;6.71;100.00;94361.56;4970721;28;20482;-85
2022/11/17 06:09:41;;;;;;;7.30;4.70;;;;;;;6.67;100.00;94357.66;4943611;28;20089;-85
2022/11/17 06:12:07;;;;;;;8.53;5.10;;;;;;;6.72;100.00;94342.28;4929257;28;20039;-86
2022/11/17 06:14:34;;;;;;;7.27;4.43;;;;;;;6.70;100.00;94339.00;4951317;28;20046;-86
2022/11/17 06:17:08;;;;;;;8.93;5.00;;;;;;;6.72;100.00;94347.50;4949715;28;20038;-87
2022/11/17 06:19:41;;;;;;;9.30;5.33;;;;;;;6.74;100.00;94339.47;4976536;28;20487;-86
2022/11/17 06:22:08;;;;;;;10.63;5.20;;;;;;;6.69;100.00;94341.81;4951525;28;20038;-86
2022/11/17 06:24:34;;;;;;;8.13;5.10;;;;;;;6.67;100.00;94347.22;4952371;28;20034;-85
2022/11/17 06:27:00;;;;;;;8.17;5.07;;;;;;;6.72;100.00;94338.84;4957380;28;20117;-85
2022/11/17 06:29:27;;;;;;;10.17;5.90;;;;;;;6.74;100.00;94348.13;4954167;28;20247;-86
2022/11/17 06:31:56;;;;;;;8.13;5.97;;;;;;;6.79;100.00;94358.84;4950365;28;20035;-86
2022/11/17 06:34:27;;;;;;;10.93;6.43;;;;;;;6.75;100.00;94352.34;4956626;28;20473;-86
2022/11/17 06:36:52;;;;;;;8.53;5.67;;;;;;;6.70;100.00;94343.44;4958069;28;20030;-86
2022/11/17 06:39:18;;;;;;;8.30;5.13;;;;;;;6.67;100.00;94346.41;4968513;28;20939;-86
2022/11/17 06:41:44;;;;;;;8.50;6.00;;;;;;;6.61;100.00;94343.53;4956883;28;20043;-86
2022/11/17 06:44:10;;;;;;;9.53;5.90;;;;;;;6.58;100.00;94343.91;4946197;28;20039;-87
2022/11/17 06:46:38;;;;;;;9.77;6.03;;;;;;;6.56;100.00;94347.69;4952956;28;20043;-86
2022/11/17 06:49:07;;;;;;;10.87;7.23;;;;;;;6.59;100.00;94355.16;4968346;28;20034;-86
2022/11/17 06:51:34;;;;;;;10.83;7.57;;;;;;;6.52;100.00;94351.66;4955979;28;20039;-86
2022/11/17 06:54:02;;;;;;;9.73;6.90;;;;;;;6.58;100.00;94361.38;4948793;28;20636;-86
2022/11/17 06:56:29;;;;;;;8.57;5.83;;;;;;;6.64;100.00;94359.81;4954788;28;20038;-87
2022/11/17 06:59:00;;;;;;;9.23;6.30;;;;;;;6.65;100.00;94357.06;4973717;28;20078;-86
2022/11/17 07:01:25;;;;;;;9.93;5.80;;;;;;;6.67;100.00;94362.88;4953419;28;20041;-86
2022/11/17 07:03:51;;;;;;;9.17;5.63;;;;;;;6.75;100.00;94368.03;4954589;28;20417;-87
2022/11/17 07:06:17;;;;;;;7.80;4.97;;;;;;;6.82;100.00;94363.69;4952808;28;20035;-85
2022/11/17 07:08:44;;;;;;;11.13;5.20;;;;;;;6.93;100.00;94362.41;4940661;28;20114;-85
2022/11/17 07:11:12;;;;;;;18.20;8.47;;;;;;;7.00;100.00;94359.88;4948057;28;20027;-90
2022/11/17 07:13:57;;;;;;;6.70;4.13;;;;;;;7.03;100.00;94351.69;4962258;28;20413;-86
2022/11/17 07:16:23;;;;;;;6.40;3.40;;;;;;;7.12;100.00;94349.78;4967803;28;20031;-82
2022/11/17 07:18:52;;;;;;;22.00;14.67;;;;;;;7.37;100.00;94345.00;4961867;28;20099;-88
2022/11/17 07:21:21;;;;;;;14.57;10.77;;;;;;;7.43;100.00;94354.72;4961223;28;20043;-90
2022/11/17 07:23:46;;;;;;;40.13;30.47;;;;;;;7.51;100.00;94358.03;4946131;28;20133;-88
2022/11/17 07:26:13;;;;;;;8.37;4.73;;;;;;;7.57;100.00;94359.09;4942953;28;20066;-80
2022/11/17 07:28:38;;;;;;;8.83;3.90;;;;;;;7.49;100.00;94360.03;4946838;29;20412;-93
2022/11/17 07:31:40;;;;;;;8.53;4.10;;;;;;;7.49;100.00;94348.75;4938929;29;20047;-87
2022/11/17 07:34:06;;;;;;;8.33;4.00;;;;;;;7.43;100.00;94345.06;4945264;28;20083;-87
2022/11/17 07:36:32;;;;;;;9.33;3.80;;;;;;;7.53;100.00;94348.19;4948498;28;20034;-86
2022/11/17 07:38:58;;;;;;;8.10;3.77;;;;;;;7.54;100.00;94344.59;4956111;28;20041;-85
2022/11/17 07:41:23;;;;;;;9.97;3.80;;;;;;;7.92;100.00;94333.03;4944122;29;20038;-83
2022/11/17 07:43:49;;;;;;;8.00;3.73;;;;;;;8.19;100.00;94329.63;4956989;28;20036;-84
2022/11/17 07:46:15;;;;;;;8.33;3.57;;;;;;;8.18;100.00;94330.63;4956916;28;20069;-84
2022/11/17 07:48:45;;;;;;;22.93;3.53;;;;;;;8.31;100.00;94318.59;4946855;28;20405;-85
2022/11/17 07:51:12;;;;;;;14.03;5.50;;;;;;;8.05;100.00;94317.44;4931078;28;20035;-85
2022/11/17 07:53:38;;;;;;;10.33;3.60;;;;;;;8.01;100.00;94318.78;4948690;28;20590;-84
2022/11/17 07:56:06;;;;;;;12.20;4.17;;;;;;;8.00;100.00;94328.47;4948942;28;20039;-84
2022/11/17 07:58:32;;;;;;;10.87;3.80;;;;;;;8.07;100.00;94336.38;4964184;28;20035;-84
2022/11/17 08:00:57;;;;;;;8.23;3.77;;;;;;;8.73;100.00;94322.91;4954152;28;20041;-83
2022/11/17 08:03:23;;;;;;;8.77;3.83;;;;;;;8.95;100.00;94313.09;4964046;28;20023;-83
2022/11/17 08:05:49;;;;;;;7.10;3.70;;;;;;;9.49;100.00;94304.38;4970097;28;20147;-83
2022/11/17 08:08:15;;;;;;;8.50;3.70;;;;;;;9.64;100.00;94294.50;4928931;28;20038;-89
2022/11/17 08:10:41;;;;;;;12.93;3.83;;;;;;;9.83;100.00;94300.78;4936426;28;20039;-85
2022/11/17 08:13:08;;;;;;;129.07;15.07;;;;;;;10.13;100.00;94318.75;4931650;28;20174;-87
2022/11/17 08:15:34;;;;;;;7.77;3.13;;;;;;;10.26;100.00;94307.41;4950080;28;20405;-86
2022/11/17 08:18:00;;;;;;;23.80;4.00;;;;;;;10.42;100.00;94303.56;4933403;28;20043;-86
2022/11/17 08:20:28;;;;;;;17.73;4.37;;;;;;;10.46;100.00;94302.97;4943859;29;20794;-85
2022/11/17 08:22:54;;;;;;;106.10;13.23;;;;;;;10.12;100.00;94296.91;4943626;28;21835;-85
2022/11/17 08:25:22;;;;;;;8.10;3.20;;;;;;;10.91;100.00;94291.69;4954316;28;20042;-84
2022/11/17 08:27:50;;;;;;;8.40;3.10;;;;;;;10.13;100.00;94300.38;4931038;29;20043;-83
2022/11/17 08:30:19;;;;;;;36.73;8.03;;;;;;;9.94;100.00;94299.34;4959664;28;20043;-82
2022/11/17 08:32:50;;;;;;;16.70;5.67;;;;;;;9.59;100.00;94298.72;4965260;28;20544;-84
2022/11/17 08:35:18;;;;;;;39.80;5.60;;;;;;;9.67;100.00;94311.66;4935030;29;20161;-84
2022/11/17 08:37:45;;;;;;;7.17;3.10;;;;;;;9.36;100.00;94320.09;4943129;29;20039;-83
2022/11/17 08:40:12;;;;;;;5.77;2.90;;;;;;;9.19;100.00;94325.69;4947293;28;20117;-83
2022/11/17 08:42:40;;;;;;;7.47;3.53;;;;;;;9.02;100.00;94329.69;4940503;28;20039;-83
2022/11/17 08:45:07;;;;;;;7.57;3.90;;;;;;;8.96;100.00;94327.84;4953767;28;20062;-84
2022/11/17 08:47:48;;;;;;;10.47;3.50;;;;;;;8.89;100.00;94329.63;4948630;28;20973;-83
2022/11/17 08:50:14;;;;;;;6.67;3.23;;;;;;;8.82;100.00;94334.00;4945858;28;20042;-84
2022/11/17 08:52:39;;;;;;;19.47;4.37;;;;;;;8.88;100.00;94328.00;4946127;28;20034;-84
2022/11/17 08:55:05;;;;;;;5.93;2.87;;;;;;;8.98;100.00;94331.06;4946057;28;20038;-84
2022/11/17 08:57:31;;;;;;;53.50;8.97;;;;;;;9.10;100.00;94342.59;4962398;28;20400;-83
2022/11/17 08:59:57;;;;;;;7.27;3.43;;;;;;;9.06;100.00;94333.53;4954820;28;20080;-83
2022/11/17 09:02:25;;;;;;;59.90;9.63;;;;;;;9.32;100.00;94335.44;4946100;28;20122;-84
2022/11/17 09:04:56;;;;;;;8.57;3.70;;;;;;;9.28;100.00;94328.13;4962787;28;20081;-83
2022/11/17 09:07:22;;;;;;;59.47;8.40;;;;;;;9.25;100.00;94333.78;4938362;28;20038;-84
2022/11/17 09:09:48;;;;;;;8.97;4.23;;;;;;;9.35;100.00;94334.19;4960556;28;20034;-83
2022/11/17 09:12:21;;;;;;;17.13;4.17;;;;;;;9.48;100.00;94322.94;4937864;28;20511;-84
2022/11/17 09:14:46;;;;;;;7.15;2.78;;;;;;;9.44;100.00;94317.28;4969139;28;20042;-84
2022/11/17 09:17:12;;;;;;;15.83;9.40;;;;;;;9.62;100.00;94325.41;4955216;28;20073;-85
2022/11/17 09:19:50;;;;;;;118.87;82.33;;;;;;;9.70;100.00;94321.75;4947230;28;20279;-85
2022/11/17 09:22:16;;;;;;;51.13;34.13;;;;;;;9.98;100.00;94323.38;4949211;28;20041;-88
2022/11/17 09:24:41;;;;;;;30.17;15.70;;;;;;;10.05;100.00;94330.25;4950753;28;20114;-89
2022/11/17 09:27:08;;;;;;;17.90;7.27;;;;;;;10.15;100.00;94332.47;4955959;28;20030;-87
2022/11/17 09:29:34;;;;;;;7.27;2.73;;;;;;;10.24;100.00;94327.81;4952559;28;20049;-88
2022/11/17 09:32:01;;;;;;;5.77;1.43;;;;;;;10.23;100.00;94323.56;4950944;28;20117;-87
2022/11/17 09:34:28;;;;;;;2.80;0.70;;;;;;;10.31;100.00;94326.81;4949936;29;20054;-87
2022/11/17 09:36:53;;;;;;;6.60;1.10;;;;;;;10.34;100.00;94328.25;4962250;28;20054;-87
2022/11/17 09:39:37;;;;;;;3.17;0.90;;;;;;;10.47;100.00;94346.63;4948077;28;20709;-86
2022/11/17 09:42:03;;;;;;;34.70;6.20;;;;;;;10.42;100.00;94341.16;4942124;28;20409;-86
2022/11/17 09:44:47;;;;;;;6.63;0.63;;;;;;;10.37;100.00;94330.47;4945298;28;20042;-86
2022/11/17 09:47:42;;;;;;;45.67;6.45;;;;;;;10.53;100.00;94342.34;4928735;29;20042;-86
2022/11/17 09:50:14;;;;;;;36.97;6.40;;;;;;;10.67;100.00;94337.91;4947918;28;20070;-87
2022/11/17 09:53:10;;;;;;;173.63;24.57;;;;;;;10.78;100.00;94339.88;4961816;28;20037;-87
2022/11/17 09:55:41;;;;;;;261.83;32.80;;;;;;;10.77;100.00;94344.34;4956759;28;20082;-85
2022/11/17 09:58:21;;;;;;;251.20;32.17;;;;;;;10.68;100.00;94350.03;4950404;28;20038;-88
2022/11/17 10:00:49;;;;;;;19.00;2.03;;;;;;;10.64;100.00;94354.88;4938457;28;20045;-87
2022/11/17 10:03:31;;;;;;;90.87;11.43;;;;;;;10.52;100.00;94346.00;4951153;28;20034;-86
2022/11/17 10:06:05;;;;;;;42.00;5.73;;;;;;;10.51;100.00;94354.91;4932852;28;20043;-87
2022/11/17 10:08:30;;;;;;;;;;;;;;;10.49;100.00;94357.72;4954398;28;20049;-86
2022/11/17 10:10:56;;;;;;;352.57;43.90;;;;;;;10.85;100.00;94367.75;4956574;28;20384;-88
2022/11/17 10:13:31;;;;;;;214.57;26.17;;;;;;;10.76;100.00;94358.47;4952665;28;20038;-87
2022/11/17 10:16:02;;;;;;;218.27;22.93;;;;;;;10.91;100.00;94366.13;4939430;28;20039;-88
2022/11/17 10:18:31;;;;;;;60.50;7.60;;;;;;;10.91;100.00;94371.41;4952439;29;20055;-85
2022/11/17 10:20:57;;;;;;;33.83;4.10;;;;;;;10.74;100.00;94363.16;4961529;28;20046;-86
2022/11/17 10:23:27;;;;;;;86.17;12.50;;;;;;;10.70;100.00;94369.03;4949997;28;20039;-85
2022/11/17 10:25:59;;;;;;;42.33;7.80;;;;;;;10.59;100.00;94363.38;4939340;28;20544;-86
2022/11/17 10:28:31;;;;;;;40.30;5.33;;;;;;;10.54;100.00;94371.06;4949930;28;20396;-85
2022/11/17 10:31:17;;;;;;;32.10;3.20;;;;;;;10.60;100.00;94370.25;4942079;28;20114;-87
2022/11/17 10:33:48;;;;;;;28.00;3.07;;;;;;;10.54;100.00;94365.81;4962788;28;20573;-85
2022/11/17 10:36:28;;;;;;;228.13;34.83;;;;;;;10.81;100.00;94381.53;4940789;28;20030;-87
2022/11/17 10:38:56;;;;;;;92.93;14.90;;;;;;;10.71;100.00;94370.63;4953022;28;20027;-87
2022/11/17 10:41:39;;;;;;;27.53;4.50;;;;;;;10.55;100.00;94362.16;4951182;28;20037;-86
2022/11/17 10:44:21;;;;;;;35.63;4.70;;;;;;;10.54;100.00;94357.94;4968283;28;20493;-86
2022/11/17 10:46:58;;;;;;;36.27;4.47;;;;;;;10.78;100.00;94355.66;4950480;28;20383;-85
2022/11/17 10:49:26;;;;;;;111.43;33.03;;;;;;;10.83;100.00;94354.03;4954797;28;20038;-85
2022/11/17 10:52:07;;;;;;;59.60;16.50;;;;;;;10.90;100.00;94364.53;4941309;28;20485;-86
2022/11/17 10:54:39;;;;;;;81.97;18.40;;;;;;;10.70;100.00;94348.81;4954211;28;20030;-85
2022/11/17 10:57:18;;;;;;;10.77;2.60;;;;;;;11.08;100.00;94346.25;4951370;28;20046;-86
2022/11/17 10:59:49;;;;;;;11.00;2.80;;;;;;;11.35;100.00;94340.06;4952826;28;20803;-86
2022/11/17 11:02:38;;;;;;;24.83;5.63;;;;;;;12.38;100.00;94334.53;4972726;28;20038;-85
2022/11/17 11:05:07;;;;;;;18.57;3.87;;;;;;;12.11;100.00;94333.94;4954982;28;20120;-85
2022/11/17 11:07:46;;;;;;;6.87;2.67;;;;;;;11.43;100.00;94334.53;4936003;28;20043;-84
2022/11/17 11:10:25;;;;;;;12.77;5.67;;;;;;;11.62;100.00;94335.47;4944376;28;20788;-90
2022/11/17 11:13:38;;;;;;;38.23;16.37;;;;;;;11.53;100.00;94327.78;4945920;28;20055;-88
2022/11/17 11:16:05;;;;;;;10.40;3.03;;;;;;;11.30;100.00;94330.16;4947894;28;20077;-89
2022/11/17 11:18:31;;;;;;;3.07;0.97;;;;;;;11.49;100.00;94323.97;4958938;28;20085;-88
2022/11/17 11:21:15;;;;;;;12.17;2.47;;;;;;;11.60;100.00;94330.38;4944749;28;20448;-88
2022/11/17 11:24:06;;;;;;;4.37;0.87;;;;;;;11.38;100.00;94323.84;4943983;28;20081;-88
2022/11/17 11:29:55;;;;;;;11.13;3.53;;;;;;;11.62;100.00;94324.94;4973345;28;20038;-86
2022/11/17 11:32:49;;;;;;;34.17;20.63;;;;;;;12.24;100.00;94323.28;4950417;28;20035;-86
2022/11/17 11:38:45;;;;;;;40.67;10.73;;;;;;;11.95;100.00;94325.53;4976091;28;20031;-85
2022/11/17 11:44:33;;;;;;;18.97;12.10;;;;;;;12.02;100.00;94304.41;4970335;28;20035;-83
2022/11/17 11:47:10;;;;;;;15.20;8.33;;;;;;;12.62;100.00;94303.84;4952416;28;20069;-87
2022/11/17 11:49:56;;;;;;;39.30;27.47;;;;;;;13.38;100.00;94305.19;4939373;28;20030;-84
2022/11/17 11:52:29;;;;;;;23.63;4.17;;;;;;;13.22;100.00;94298.69;4967653;28;20124;-84
2022/11/17 11:55:02;;;;;;;13.82;4.80;;;;;;;13.14;100.00;94293.72;4941260;28;20038;-84
2022/11/17 11:57:35;;;;;;;6.77;1.30;;;;;;;12.95;100.00;94298.22;4956151;28;20290;-85
2022/11/17 12:00:15;;;;;;;5.63;1.15;;;;;;;12.26;100.00;94308.84;4935675;28;20054;-85
2022/11/17 12:02:55;;;;;;;17.37;2.77;;;;;;;13.02;100.00;94306.84;4965125;28;20043;-84
2022/11/17 12:05:35;;;;;;;20.23;3.63;;;;;;;13.23;100.00;94300.31;4944164;28;20032;-85
2022/11/17 12:08:11;;;;;;;22.43;2.13;;;;;;;13.27;100.00;94308.59;4949981;28;20035;-84
2022/11/17 12:11:59;;;;;;;245.47;31.13;;;;;;;13.62;100.00;94303.47;4950889;28;20319;-84
2022/11/17 12:13:55;;;;;;;9.97;1.20;;;;;;;13.57;100.00;94301.50;4944697;28;20046;-86
2022/11/17 12:16:41;;;;;;;17.33;2.43;;;;;;;13.51;100.00;94291.03;4927331;29;20034;-86
2022/11/17 12:22:31;;;;;;;78.20;8.90;;;;;;;13.64;100.00;94301.41;4965394;28;20409;-85
2022/11/17 12:25:26;;;;;;;33.10;4.67;;;;;;;13.11;100.00;94304.72;4935988;28;20039;-85
2022/11/17 12:27:52;;;;;;;13.57;2.27;;;;;;;12.21;100.00;94318.44;4945744;28;20046;-84